sensor_id;sensor_type;location;lat;lon;timestamp;P1;durP1;ratioP1;P2;durP2;ratioP2
11817;SDS011;5966;52.402;5.322;2023-05-07T00:01:03;8.60;;;7.00;;
11817;SDS011;5966;52.402;5.322;2023-05-07T00:03:32;7.00;;;6.30;;
11817;SDS011;5966;52.402;5.322;2023-05-07T00:06:00;7.37;;;6.50;;
11817;SDS011;5966;52.402;5.322;2023-05-07T00:08:28;8.40;;;5.83;;
11817;SDS011;5966;52.402;5.322;2023-05-07T00:10:57;6.40;;;5.50;;
11817;SDS011;5966;52.402;5.322;2023-05-07T00:13:25;6.40;;;5.80;;
11817;SDS011;5966;52.402;5.322;2023-05-07T00:15:53;7.17;;;5.90;;
11817;SDS011;5966;52.402;5.322;2023-05-07T00:18:21;8.33;;;5.83;;
11817;SDS011;5966;52.402;5.322;2023-05-07T00:20:49;6.33;;;5.43;;
11817;SDS011;5966;52.402;5.322;2023-05-07T00:23:17;6.37;;;5.50;;
11817;SDS011;5966;52.402;5.322;2023-05-07T00:25:45;7.93;;;5.43;;
11817;SDS011;5966;52.402;5.322;2023-05-07T00:28:14;6.07;;;5.47;;
11817;SDS011;5966;52.402;5.322;2023-05-07T00:30:42;6.60;;;5.07;;
11817;SDS011;5966;52.402;5.322;2023-05-07T00:33:10;5.70;;;5.10;;
11817;SDS011;5966;52.402;5.322;2023-05-07T00:35:38;5.23;;;4.70;;
11817;SDS011;5966;52.402;5.322;2023-05-07T00:38:06;5.10;;;4.70;;
11817;SDS011;5966;52.402;5.322;2023-05-07T00:40:34;7.00;;;4.93;;
11817;SDS011;5966;52.402;5.322;2023-05-07T00:43:02;4.90;;;4.40;;
11817;SDS011;5966;52.402;5.322;2023-05-07T00:45:32;6.07;;;4.37;;
11817;SDS011;5966;52.402;5.322;2023-05-07T00:48:01;5.50;;;4.60;;
11817;SDS011;5966;52.402;5.322;2023-05-07T00:50:32;5.53;;;4.27;;
11817;SDS011;5966;52.402;5.322;2023-05-07T00:53:00;4.47;;;3.90;;
11817;SDS011;5966;52.402;5.322;2023-05-07T00:55:28;5.43;;;4.60;;
11817;SDS011;5966;52.402;5.322;2023-05-07T00:57:57;4.70;;;3.90;;
11817;SDS011;5966;52.402;5.322;2023-05-07T01:00:25;6.93;;;4.40;;
11817;SDS011;5966;52.402;5.322;2023-05-07T01:02:54;4.63;;;4.23;;
11817;SDS011;5966;52.402;5.322;2023-05-07T01:05:23;4.97;;;4.37;;
11817;SDS011;5966;52.402;5.322;2023-05-07T01:07:52;4.43;;;4.03;;
11817;SDS011;5966;52.402;5.322;2023-05-07T01:10:21;4.20;;;3.90;;
11817;SDS011;5966;52.402;5.322;2023-05-07T01:12:49;4.50;;;4.10;;
11817;SDS011;5966;52.402;5.322;2023-05-07T01:15:18;4.93;;;4.43;;
11817;SDS011;5966;52.402;5.322;2023-05-07T01:17:47;4.17;;;3.77;;
11817;SDS011;5966;52.402;5.322;2023-05-07T01:20:17;5.03;;;4.63;;
11817;SDS011;5966;52.402;5.322;2023-05-07T01:22:47;5.30;;;4.80;;
11817;SDS011;5966;52.402;5.322;2023-05-07T01:25:16;4.27;;;3.87;;
11817;SDS011;5966;52.402;5.322;2023-05-07T01:27:45;4.93;;;4.40;;
11817;SDS011;5966;52.402;5.322;2023-05-07T01:30:13;5.13;;;4.63;;
11817;SDS011;5966;52.402;5.322;2023-05-07T01:32:43;4.93;;;4.40;;
11817;SDS011;5966;52.402;5.322;2023-05-07T01:35:18;4.87;;;4.13;;
11817;SDS011;5966;52.402;5.322;2023-05-07T01:37:49;4.73;;;4.20;;
11817;SDS011;5966;52.402;5.322;2023-05-07T01:40:18;4.40;;;4.00;;
11817;SDS011;5966;52.402;5.322;2023-05-07T01:42:46;5.67;;;4.23;;
11817;SDS011;5966;52.402;5.322;2023-05-07T01:45:18;5.87;;;4.97;;
11817;SDS011;5966;52.402;5.322;2023-05-07T01:47:48;4.73;;;4.20;;
11817;SDS011;5966;52.402;5.322;2023-05-07T01:50:19;4.73;;;4.23;;
11817;SDS011;5966;52.402;5.322;2023-05-07T01:52:52;4.37;;;3.97;;
11817;SDS011;5966;52.402;5.322;2023-05-07T01:55:20;7.80;;;4.17;;
11817;SDS011;5966;52.402;5.322;2023-05-07T01:57:48;5.13;;;4.07;;
11817;SDS011;5966;52.402;5.322;2023-05-07T02:00:17;4.47;;;4.07;;
11817;SDS011;5966;52.402;5.322;2023-05-07T02:02:45;4.70;;;3.90;;
11817;SDS011;5966;52.402;5.322;2023-05-07T02:05:13;4.47;;;4.07;;
11817;SDS011;5966;52.402;5.322;2023-05-07T02:07:41;5.23;;;4.07;;
11817;SDS011;5966;52.402;5.322;2023-05-07T02:10:14;6.90;;;4.27;;
11817;SDS011;5966;52.402;5.322;2023-05-07T02:12:42;5.43;;;3.73;;
11817;SDS011;5966;52.402;5.322;2023-05-07T02:15:10;4.30;;;3.97;;
11817;SDS011;5966;52.402;5.322;2023-05-07T02:17:39;5.37;;;4.10;;
11817;SDS011;5966;52.402;5.322;2023-05-07T02:20:28;3.93;;;3.50;;
11817;SDS011;5966;52.402;5.322;2023-05-07T02:22:56;4.13;;;3.83;;
11817;SDS011;5966;52.402;5.322;2023-05-07T02:25:26;4.30;;;3.90;;
11817;SDS011;5966;52.402;5.322;2023-05-07T02:27:53;4.43;;;4.03;;
11817;SDS011;5966;52.402;5.322;2023-05-07T02:30:22;4.67;;;4.13;;
11817;SDS011;5966;52.402;5.322;2023-05-07T02:32:51;4.60;;;4.17;;
11817;SDS011;5966;52.402;5.322;2023-05-07T02:35:19;4.60;;;4.20;;
11817;SDS011;5966;52.402;5.322;2023-05-07T02:37:47;4.93;;;3.60;;
11817;SDS011;5966;52.402;5.322;2023-05-07T02:40:15;6.17;;;4.17;;
11817;SDS011;5966;52.402;5.322;2023-05-07T02:42:44;4.70;;;4.00;;
11817;SDS011;5966;52.402;5.322;2023-05-07T02:45:12;4.20;;;3.80;;
11817;SDS011;5966;52.402;5.322;2023-05-07T02:47:40;3.90;;;3.60;;
11817;SDS011;5966;52.402;5.322;2023-05-07T02:50:09;4.33;;;3.93;;
11817;SDS011;5966;52.402;5.322;2023-05-07T02:52:38;5.83;;;4.40;;
11817;SDS011;5966;52.402;5.322;2023-05-07T02:55:06;5.47;;;4.00;;
11817;SDS011;5966;52.402;5.322;2023-05-07T02:57:35;4.43;;;4.03;;
11817;SDS011;5966;52.402;5.322;2023-05-07T03:00:14;4.50;;;4.10;;
11817;SDS011;5966;52.402;5.322;2023-05-07T03:02:44;4.20;;;3.90;;
11817;SDS011;5966;52.402;5.322;2023-05-07T03:05:11;5.57;;;4.20;;
11817;SDS011;5966;52.402;5.322;2023-05-07T03:07:40;4.43;;;4.03;;
11817;SDS011;5966;52.402;5.322;2023-05-07T03:10:11;3.87;;;3.57;;
11817;SDS011;5966;52.402;5.322;2023-05-07T03:12:39;5.00;;;4.27;;
11817;SDS011;5966;52.402;5.322;2023-05-07T03:15:07;6.40;;;4.03;;
11817;SDS011;5966;52.402;5.322;2023-05-07T03:17:37;4.60;;;4.20;;
11817;SDS011;5966;52.402;5.322;2023-05-07T03:20:06;4.27;;;3.83;;
11817;SDS011;5966;52.402;5.322;2023-05-07T03:22:36;6.90;;;4.33;;
11817;SDS011;5966;52.402;5.322;2023-05-07T03:25:06;4.43;;;4.03;;
11817;SDS011;5966;52.402;5.322;2023-05-07T03:27:34;4.87;;;4.37;;
11817;SDS011;5966;52.402;5.322;2023-05-07T03:30:03;5.00;;;4.50;;
11817;SDS011;5966;52.402;5.322;2023-05-07T03:32:32;6.10;;;4.73;;
11817;SDS011;5966;52.402;5.322;2023-05-07T03:35:05;5.10;;;4.60;;
11817;SDS011;5966;52.402;5.322;2023-05-07T03:37:34;5.03;;;4.50;;
11817;SDS011;5966;52.402;5.322;2023-05-07T03:40:02;5.00;;;4.50;;
11817;SDS011;5966;52.402;5.322;2023-05-07T03:42:30;5.23;;;3.97;;
11817;SDS011;5966;52.402;5.322;2023-05-07T03:44:58;5.00;;;4.50;;
11817;SDS011;5966;52.402;5.322;2023-05-07T03:47:26;6.27;;;4.80;;
11817;SDS011;5966;52.402;5.322;2023-05-07T03:49:54;4.70;;;4.20;;
11817;SDS011;5966;52.402;5.322;2023-05-07T03:52:24;4.70;;;4.30;;
11817;SDS011;5966;52.402;5.322;2023-05-07T03:54:53;5.17;;;4.37;;
11817;SDS011;5966;52.402;5.322;2023-05-07T03:57:21;5.17;;;4.67;;
11817;SDS011;5966;52.402;5.322;2023-05-07T03:59:49;6.57;;;5.20;;
11817;SDS011;5966;52.402;5.322;2023-05-07T04:02:21;5.30;;;4.80;;
11817;SDS011;5966;52.402;5.322;2023-05-07T04:04:49;5.40;;;4.90;;
11817;SDS011;5966;52.402;5.322;2023-05-07T04:07:17;5.73;;;5.13;;
11817;SDS011;5966;52.402;5.322;2023-05-07T04:09:46;8.00;;;5.23;;
11817;SDS011;5966;52.402;5.322;2023-05-07T04:12:14;7.07;;;5.13;;
11817;SDS011;5966;52.402;5.322;2023-05-07T04:14:49;6.60;;;5.00;;
11817;SDS011;5966;52.402;5.322;2023-05-07T04:17:17;5.63;;;4.97;;
11817;SDS011;5966;52.402;5.322;2023-05-07T04:19:47;5.50;;;5.00;;
11817;SDS011;5966;52.402;5.322;2023-05-07T04:22:15;8.30;;;5.20;;
11817;SDS011;5966;52.402;5.322;2023-05-07T04:24:43;5.67;;;5.17;;
11817;SDS011;5966;52.402;5.322;2023-05-07T04:27:12;7.47;;;5.83;;
11817;SDS011;5966;52.402;5.322;2023-05-07T04:29:40;7.67;;;6.30;;
11817;SDS011;5966;52.402;5.322;2023-05-07T04:32:13;6.20;;;5.57;;
11817;SDS011;5966;52.402;5.322;2023-05-07T04:34:41;6.77;;;6.13;;
11817;SDS011;5966;52.402;5.322;2023-05-07T04:37:09;7.00;;;6.30;;
11817;SDS011;5966;52.402;5.322;2023-05-07T04:39:37;6.80;;;5.73;;
11817;SDS011;5966;52.402;5.322;2023-05-07T04:42:05;6.40;;;5.80;;
11817;SDS011;5966;52.402;5.322;2023-05-07T04:44:36;6.40;;;5.80;;
11817;SDS011;5966;52.402;5.322;2023-05-07T04:47:04;7.00;;;6.37;;
11817;SDS011;5966;52.402;5.322;2023-05-07T04:49:32;7.00;;;5.90;;
11817;SDS011;5966;52.402;5.322;2023-05-07T04:52:00;6.97;;;6.30;;
11817;SDS011;5966;52.402;5.322;2023-05-07T04:54:29;7.57;;;6.20;;
11817;SDS011;5966;52.402;5.322;2023-05-07T04:56:57;7.97;;;6.30;;
11817;SDS011;5966;52.402;5.322;2023-05-07T04:59:27;7.50;;;6.80;;
11817;SDS011;5966;52.402;5.322;2023-05-07T05:01:56;7.97;;;7.00;;
11817;SDS011;5966;52.402;5.322;2023-05-07T05:04:25;8.27;;;7.10;;
11817;SDS011;5966;52.402;5.322;2023-05-07T05:06:53;8.77;;;7.43;;
11817;SDS011;5966;52.402;5.322;2023-05-07T05:09:21;8.30;;;7.50;;
11817;SDS011;5966;52.402;5.322;2023-05-07T05:11:49;8.77;;;7.93;;
11817;SDS011;5966;52.402;5.322;2023-05-07T05:14:28;9.30;;;8.50;;
11817;SDS011;5966;52.402;5.322;2023-05-07T05:16:57;10.30;;;9.17;;
11817;SDS011;5966;52.402;5.322;2023-05-07T05:19:25;10.47;;;9.57;;
11817;SDS011;5966;52.402;5.322;2023-05-07T05:21:59;11.07;;;9.97;;
11817;SDS011;5966;52.402;5.322;2023-05-07T05:24:30;11.43;;;10.43;;
11817;SDS011;5966;52.402;5.322;2023-05-07T05:26:58;11.73;;;10.60;;
11817;SDS011;5966;52.402;5.322;2023-05-07T05:29:30;11.80;;;10.70;;
11817;SDS011;5966;52.402;5.322;2023-05-07T05:32:02;12.33;;;10.77;;
11817;SDS011;5966;52.402;5.322;2023-05-07T05:34:35;11.90;;;10.80;;
11817;SDS011;5966;52.402;5.322;2023-05-07T05:37:04;12.60;;;11.50;;
11817;SDS011;5966;52.402;5.322;2023-05-07T05:39:44;14.97;;;12.73;;
11817;SDS011;5966;52.402;5.322;2023-05-07T05:42:27;13.67;;;12.37;;
11817;SDS011;5966;52.402;5.322;2023-05-07T05:44:55;13.97;;;12.60;;
11817;SDS011;5966;52.402;5.322;2023-05-07T05:47:26;13.47;;;12.27;;
11817;SDS011;5966;52.402;5.322;2023-05-07T05:49:54;13.80;;;12.47;;
11817;SDS011;5966;52.402;5.322;2023-05-07T05:52:22;15.10;;;13.70;;
11817;SDS011;5966;52.402;5.322;2023-05-07T05:54:51;14.83;;;13.47;;
11817;SDS011;5966;52.402;5.322;2023-05-07T05:57:19;14.63;;;13.27;;
11817;SDS011;5966;52.402;5.322;2023-05-07T05:59:47;15.40;;;13.90;;
11817;SDS011;5966;52.402;5.322;2023-05-07T06:02:16;15.17;;;13.77;;
11817;SDS011;5966;52.402;5.322;2023-05-07T06:04:47;15.27;;;13.70;;
11817;SDS011;5966;52.402;5.322;2023-05-07T06:07:17;15.43;;;13.83;;
11817;SDS011;5966;52.402;5.322;2023-05-07T06:09:48;14.40;;;13.10;;
11817;SDS011;5966;52.402;5.322;2023-05-07T06:12:17;15.03;;;13.63;;
11817;SDS011;5966;52.402;5.322;2023-05-07T06:14:47;14.33;;;13.00;;
11817;SDS011;5966;52.402;5.322;2023-05-07T06:17:16;14.43;;;13.13;;
11817;SDS011;5966;52.402;5.322;2023-05-07T06:19:48;15.40;;;14.00;;
11817;SDS011;5966;52.402;5.322;2023-05-07T06:22:16;15.50;;;14.03;;
11817;SDS011;5966;52.402;5.322;2023-05-07T06:24:44;14.83;;;13.53;;
11817;SDS011;5966;52.402;5.322;2023-05-07T06:27:13;15.30;;;13.90;;
11817;SDS011;5966;52.402;5.322;2023-05-07T06:29:41;14.90;;;13.53;;
11817;SDS011;5966;52.402;5.322;2023-05-07T06:32:09;15.30;;;13.90;;
11817;SDS011;5966;52.402;5.322;2023-05-07T06:34:38;15.23;;;13.83;;
11817;SDS011;5966;52.402;5.322;2023-05-07T06:37:08;15.17;;;13.67;;
11817;SDS011;5966;52.402;5.322;2023-05-07T06:39:36;16.13;;;14.53;;
11817;SDS011;5966;52.402;5.322;2023-05-07T06:42:04;14.67;;;13.27;;
11817;SDS011;5966;52.402;5.322;2023-05-07T06:44:32;16.07;;;14.37;;
11817;SDS011;5966;52.402;5.322;2023-05-07T06:47:00;16.37;;;14.87;;
11817;SDS011;5966;52.402;5.322;2023-05-07T06:49:28;15.93;;;14.33;;
11817;SDS011;5966;52.402;5.322;2023-05-07T06:51:57;15.90;;;14.20;;
11817;SDS011;5966;52.402;5.322;2023-05-07T06:54:26;14.90;;;13.57;;
11817;SDS011;5966;52.402;5.322;2023-05-07T06:56:56;15.33;;;13.90;;
11817;SDS011;5966;52.402;5.322;2023-05-07T06:59:25;15.13;;;13.67;;
11817;SDS011;5966;52.402;5.322;2023-05-07T07:01:53;15.53;;;14.03;;
11817;SDS011;5966;52.402;5.322;2023-05-07T07:04:21;15.33;;;13.90;;
11817;SDS011;5966;52.402;5.322;2023-05-07T07:06:51;15.67;;;14.00;;
11817;SDS011;5966;52.402;5.322;2023-05-07T07:09:20;14.50;;;13.20;;
11817;SDS011;5966;52.402;5.322;2023-05-07T07:11:50;15.37;;;13.97;;
11817;SDS011;5966;52.402;5.322;2023-05-07T07:14:18;15.53;;;14.00;;
11817;SDS011;5966;52.402;5.322;2023-05-07T07:16:46;15.30;;;13.60;;
11817;SDS011;5966;52.402;5.322;2023-05-07T07:19:14;15.03;;;13.47;;
11817;SDS011;5966;52.402;5.322;2023-05-07T07:21:43;15.23;;;13.63;;
11817;SDS011;5966;52.402;5.322;2023-05-07T07:24:12;14.80;;;13.40;;
11817;SDS011;5966;52.402;5.322;2023-05-07T07:26:45;15.20;;;13.70;;
11817;SDS011;5966;52.402;5.322;2023-05-07T07:29:14;14.10;;;12.73;;
11817;SDS011;5966;52.402;5.322;2023-05-07T07:31:42;15.43;;;13.93;;
11817;SDS011;5966;52.402;5.322;2023-05-07T07:34:10;15.63;;;14.07;;
11817;SDS011;5966;52.402;5.322;2023-05-07T07:36:38;15.10;;;13.43;;
11817;SDS011;5966;52.402;5.322;2023-05-07T07:39:12;15.40;;;13.60;;
11817;SDS011;5966;52.402;5.322;2023-05-07T07:41:40;15.00;;;13.47;;
11817;SDS011;5966;52.402;5.322;2023-05-07T07:44:08;14.43;;;12.93;;
11817;SDS011;5966;52.402;5.322;2023-05-07T07:46:43;15.37;;;13.87;;
11817;SDS011;5966;52.402;5.322;2023-05-07T07:49:11;14.60;;;13.10;;
11817;SDS011;5966;52.402;5.322;2023-05-07T07:51:38;15.77;;;13.47;;
11817;SDS011;5966;52.402;5.322;2023-05-07T07:54:06;15.13;;;13.63;;
11817;SDS011;5966;52.402;5.322;2023-05-07T07:56:35;15.20;;;13.70;;
11817;SDS011;5966;52.402;5.322;2023-05-07T07:59:02;14.47;;;13.10;;
11817;SDS011;5966;52.402;5.322;2023-05-07T08:01:31;15.40;;;13.80;;
11817;SDS011;5966;52.402;5.322;2023-05-07T08:04:00;15.07;;;13.07;;
11817;SDS011;5966;52.402;5.322;2023-05-07T08:06:29;14.63;;;13.10;;
11817;SDS011;5966;52.402;5.322;2023-05-07T08:08:57;15.80;;;14.30;;
11817;SDS011;5966;52.402;5.322;2023-05-07T08:11:27;15.30;;;13.73;;
11817;SDS011;5966;52.402;5.322;2023-05-07T08:13:55;14.47;;;12.97;;
11817;SDS011;5966;52.402;5.322;2023-05-07T08:16:23;15.83;;;14.33;;
11817;SDS011;5966;52.402;5.322;2023-05-07T08:18:51;15.83;;;14.33;;
11817;SDS011;5966;52.402;5.322;2023-05-07T08:21:21;14.87;;;13.50;;
11817;SDS011;5966;52.402;5.322;2023-05-07T08:23:49;14.30;;;12.90;;
11817;SDS011;5966;52.402;5.322;2023-05-07T08:26:17;14.73;;;13.23;;
11817;SDS011;5966;52.402;5.322;2023-05-07T08:28:46;14.40;;;12.97;;
11817;SDS011;5966;52.402;5.322;2023-05-07T08:31:15;14.90;;;13.23;;
11817;SDS011;5966;52.402;5.322;2023-05-07T08:33:43;14.20;;;12.60;;
11817;SDS011;5966;52.402;5.322;2023-05-07T08:36:11;14.97;;;13.50;;
11817;SDS011;5966;52.402;5.322;2023-05-07T08:38:41;16.73;;;13.50;;
11817;SDS011;5966;52.402;5.322;2023-05-07T08:41:11;15.53;;;12.93;;
11817;SDS011;5966;52.402;5.322;2023-05-07T08:43:40;13.17;;;11.87;;
11817;SDS011;5966;52.402;5.322;2023-05-07T08:46:09;13.20;;;11.80;;
11817;SDS011;5966;52.402;5.322;2023-05-07T08:48:38;13.83;;;12.43;;
11817;SDS011;5966;52.402;5.322;2023-05-07T08:51:06;11.93;;;10.83;;
11817;SDS011;5966;52.402;5.322;2023-05-07T08:53:36;12.20;;;11.00;;
11817;SDS011;5966;52.402;5.322;2023-05-07T08:56:09;13.53;;;12.23;;
11817;SDS011;5966;52.402;5.322;2023-05-07T08:58:37;12.77;;;11.57;;
11817;SDS011;5966;52.402;5.322;2023-05-07T09:01:06;13.73;;;12.33;;
11817;SDS011;5966;52.402;5.322;2023-05-07T09:03:36;13.63;;;12.30;;
11817;SDS011;5966;52.402;5.322;2023-05-07T09:06:05;13.93;;;11.70;;
11817;SDS011;5966;52.402;5.322;2023-05-07T09:08:33;13.40;;;12.00;;
11817;SDS011;5966;52.402;5.322;2023-05-07T09:11:02;13.03;;;11.73;;
11817;SDS011;5966;52.402;5.322;2023-05-07T09:13:32;12.83;;;11.53;;
11817;SDS011;5966;52.402;5.322;2023-05-07T09:16:09;12.70;;;11.40;;
11817;SDS011;5966;52.402;5.322;2023-05-07T09:18:41;12.27;;;11.13;;
11817;SDS011;5966;52.402;5.322;2023-05-07T09:21:11;13.63;;;12.30;;
11817;SDS011;5966;52.402;5.322;2023-05-07T09:23:42;14.50;;;13.00;;
11817;SDS011;5966;52.402;5.322;2023-05-07T09:26:10;13.23;;;11.97;;
11817;SDS011;5966;52.402;5.322;2023-05-07T09:28:40;13.60;;;12.23;;
11817;SDS011;5966;52.402;5.322;2023-05-07T09:31:09;13.93;;;12.50;;
11817;SDS011;5966;52.402;5.322;2023-05-07T09:33:38;13.20;;;11.90;;
11817;SDS011;5966;52.402;5.322;2023-05-07T09:36:08;13.63;;;12.20;;
11817;SDS011;5966;52.402;5.322;2023-05-07T09:38:37;12.90;;;11.53;;
11817;SDS011;5966;52.402;5.322;2023-05-07T09:41:05;13.17;;;11.97;;
11817;SDS011;5966;52.402;5.322;2023-05-07T09:43:35;13.60;;;12.27;;
11817;SDS011;5966;52.402;5.322;2023-05-07T09:46:08;13.33;;;12.13;;
11817;SDS011;5966;52.402;5.322;2023-05-07T09:48:39;14.57;;;12.83;;
11817;SDS011;5966;52.402;5.322;2023-05-07T09:51:11;14.50;;;13.00;;
11817;SDS011;5966;52.402;5.322;2023-05-07T09:53:45;13.77;;;12.40;;
11817;SDS011;5966;52.402;5.322;2023-05-07T09:56:13;16.97;;;13.43;;
11817;SDS011;5966;52.402;5.322;2023-05-07T09:58:42;14.33;;;12.93;;
11817;SDS011;5966;52.402;5.322;2023-05-07T10:01:13;14.20;;;12.80;;
11817;SDS011;5966;52.402;5.322;2023-05-07T10:03:43;13.70;;;12.37;;
11817;SDS011;5966;52.402;5.322;2023-05-07T10:06:11;14.53;;;13.10;;
11817;SDS011;5966;52.402;5.322;2023-05-07T10:08:40;15.10;;;13.53;;
11817;SDS011;5966;52.402;5.322;2023-05-07T10:11:10;13.43;;;12.27;;
11817;SDS011;5966;52.402;5.322;2023-05-07T10:13:40;13.57;;;12.17;;
11817;SDS011;5966;52.402;5.322;2023-05-07T10:16:10;14.43;;;12.57;;
11817;SDS011;5966;52.402;5.322;2023-05-07T10:18:39;14.83;;;13.03;;
11817;SDS011;5966;52.402;5.322;2023-05-07T10:21:08;14.23;;;12.83;;
11817;SDS011;5966;52.402;5.322;2023-05-07T10:23:44;13.20;;;11.80;;
11817;SDS011;5966;52.402;5.322;2023-05-07T10:26:13;12.77;;;11.47;;
11817;SDS011;5966;52.402;5.322;2023-05-07T10:28:43;10.93;;;9.83;;
11817;SDS011;5966;52.402;5.322;2023-05-07T10:31:17;11.23;;;10.07;;
11817;SDS011;5966;52.402;5.322;2023-05-07T10:33:59;10.47;;;9.40;;
11817;SDS011;5966;52.402;5.322;2023-05-07T10:36:28;10.47;;;9.57;;
11817;SDS011;5966;52.402;5.322;2023-05-07T10:38:57;10.70;;;9.67;;
11817;SDS011;5966;52.402;5.322;2023-05-07T10:41:25;9.77;;;8.87;;
11817;SDS011;5966;52.402;5.322;2023-05-07T10:43:53;9.87;;;8.97;;
11817;SDS011;5966;52.402;5.322;2023-05-07T10:46:21;9.37;;;8.37;;
11817;SDS011;5966;52.402;5.322;2023-05-07T10:49:10;10.50;;;9.50;;
11817;SDS011;5966;52.402;5.322;2023-05-07T10:51:42;12.80;;;11.50;;
11817;SDS011;5966;52.402;5.322;2023-05-07T10:54:18;11.50;;;10.40;;
11817;SDS011;5966;52.402;5.322;2023-05-07T10:56:47;13.40;;;12.03;;
11817;SDS011;5966;52.402;5.322;2023-05-07T10:59:30;13.40;;;12.00;;
11817;SDS011;5966;52.402;5.322;2023-05-07T11:02:07;14.13;;;12.63;;
11817;SDS011;5966;52.402;5.322;2023-05-07T11:04:38;11.97;;;10.77;;
11817;SDS011;5966;52.402;5.322;2023-05-07T11:07:23;12.87;;;10.13;;
11817;SDS011;5966;52.402;5.322;2023-05-07T11:10:05;11.10;;;9.57;;
11817;SDS011;5966;52.402;5.322;2023-05-07T11:12:47;17.73;;;8.83;;
11817;SDS011;5966;52.402;5.322;2023-05-07T11:15:35;10.47;;;8.97;;
11817;SDS011;5966;52.402;5.322;2023-05-07T11:18:08;8.23;;;7.40;;
11817;SDS011;5966;52.402;5.322;2023-05-07T11:20:51;9.20;;;8.30;;
11817;SDS011;5966;52.402;5.322;2023-05-07T11:26:22;9.53;;;7.27;;
11817;SDS011;5966;52.402;5.322;2023-05-07T11:28:51;5.93;;;5.33;;
11817;SDS011;5966;52.402;5.322;2023-05-07T11:31:21;8.30;;;7.03;;
11817;SDS011;5966;52.402;5.322;2023-05-07T11:33:52;8.47;;;6.70;;
11817;SDS011;5966;52.402;5.322;2023-05-07T11:36:23;9.37;;;7.53;;
11817;SDS011;5966;52.402;5.322;2023-05-07T11:38:52;9.33;;;8.43;;
11817;SDS011;5966;52.402;5.322;2023-05-07T11:41:20;8.73;;;7.93;;
11817;SDS011;5966;52.402;5.322;2023-05-07T11:43:58;11.37;;;8.63;;
11817;SDS011;5966;52.402;5.322;2023-05-07T11:46:27;8.35;;;7.53;;
11817;SDS011;5966;52.402;5.322;2023-05-07T11:48:56;8.00;;;7.20;;
11817;SDS011;5966;52.402;5.322;2023-05-07T11:51:26;9.83;;;7.57;;
11817;SDS011;5966;52.402;5.322;2023-05-07T11:53:54;8.90;;;7.33;;
11817;SDS011;5966;52.402;5.322;2023-05-07T11:56:22;10.03;;;7.67;;
11817;SDS011;5966;52.402;5.322;2023-05-07T11:58:50;7.73;;;7.00;;
11817;SDS011;5966;52.402;5.322;2023-05-07T12:01:18;9.40;;;7.40;;
11817;SDS011;5966;52.402;5.322;2023-05-07T12:03:46;8.35;;;6.45;;
11817;SDS011;5966;52.402;5.322;2023-05-07T12:06:15;7.85;;;7.00;;
11817;SDS011;5966;52.402;5.322;2023-05-07T12:08:45;8.07;;;6.20;;
11817;SDS011;5966;52.402;5.322;2023-05-07T12:11:16;7.40;;;6.50;;
11817;SDS011;5966;52.402;5.322;2023-05-07T12:13:53;7.20;;;6.50;;
11817;SDS011;5966;52.402;5.322;2023-05-07T12:16:25;7.10;;;6.33;;
11817;SDS011;5966;52.402;5.322;2023-05-07T12:18:54;6.20;;;5.47;;
11817;SDS011;5966;52.402;5.322;2023-05-07T12:21:22;7.43;;;5.50;;
11817;SDS011;5966;52.402;5.322;2023-05-07T12:23:55;6.07;;;5.47;;
11817;SDS011;5966;52.402;5.322;2023-05-07T12:26:23;6.73;;;5.60;;
11817;SDS011;5966;52.402;5.322;2023-05-07T12:28:51;5.90;;;5.30;;
11817;SDS011;5966;52.402;5.322;2023-05-07T12:31:19;7.27;;;5.50;;
11817;SDS011;5966;52.402;5.322;2023-05-07T12:33:48;8.13;;;5.37;;
11817;SDS011;5966;52.402;5.322;2023-05-07T12:36:16;6.03;;;5.40;;
11817;SDS011;5966;52.402;5.322;2023-05-07T12:38:44;6.87;;;5.80;;
11817;SDS011;5966;52.402;5.322;2023-05-07T12:41:13;5.77;;;4.90;;
11817;SDS011;5966;52.402;5.322;2023-05-07T12:43:43;5.83;;;5.33;;
11817;SDS011;5966;52.402;5.322;2023-05-07T12:46:12;7.20;;;6.03;;
11817;SDS011;5966;52.402;5.322;2023-05-07T12:48:43;9.33;;;6.40;;
11817;SDS011;5966;52.402;5.322;2023-05-07T12:51:12;7.53;;;6.03;;
11817;SDS011;5966;52.402;5.322;2023-05-07T12:53:41;6.50;;;5.70;;
11817;SDS011;5966;52.402;5.322;2023-05-07T12:56:10;6.53;;;5.73;;
11817;SDS011;5966;52.402;5.322;2023-05-07T12:58:39;6.38;;;5.55;;
11817;SDS011;5966;52.402;5.322;2023-05-07T13:01:07;6.77;;;6.07;;
11817;SDS011;5966;52.402;5.322;2023-05-07T13:03:37;7.80;;;5.17;;
11817;SDS011;5966;52.402;5.322;2023-05-07T13:06:06;6.43;;;5.70;;
11817;SDS011;5966;52.402;5.322;2023-05-07T13:08:39;7.38;;;5.68;;
11817;SDS011;5966;52.402;5.322;2023-05-07T13:11:09;6.47;;;4.70;;
11817;SDS011;5966;52.402;5.322;2023-05-07T13:13:40;5.83;;;4.37;;
11817;SDS011;5966;52.402;5.322;2023-05-07T13:16:09;4.70;;;4.20;;
11817;SDS011;5966;52.402;5.322;2023-05-07T13:18:38;5.20;;;3.45;;
11817;SDS011;5966;52.402;5.322;2023-05-07T13:21:07;5.73;;;3.80;;
11817;SDS011;5966;52.402;5.322;2023-05-07T13:23:36;5.80;;;3.75;;
11817;SDS011;5966;52.402;5.322;2023-05-07T13:26:04;6.65;;;3.92;;
11817;SDS011;5966;52.402;5.322;2023-05-07T13:28:53;5.35;;;3.45;;
11817;SDS011;5966;52.402;5.322;2023-05-07T13:31:21;3.35;;;2.00;;
11817;SDS011;5966;52.402;5.322;2023-05-07T13:33:49;4.27;;;1.87;;
11817;SDS011;5966;52.402;5.322;2023-05-07T13:36:17;3.83;;;1.93;;
11817;SDS011;5966;52.402;5.322;2023-05-07T13:38:45;4.33;;;2.00;;
11817;SDS011;5966;52.402;5.322;2023-05-07T13:41:13;5.15;;;2.55;;
11817;SDS011;5966;52.402;5.322;2023-05-07T13:43:41;3.90;;;3.40;;
11817;SDS011;5966;52.402;5.322;2023-05-07T13:46:11;5.07;;;3.47;;
11817;SDS011;5966;52.402;5.322;2023-05-07T13:48:39;7.77;;;4.97;;
11817;SDS011;5966;52.402;5.322;2023-05-07T13:51:10;6.15;;;5.45;;
11817;SDS011;5966;52.402;5.322;2023-05-07T13:53:38;6.83;;;5.77;;
11817;SDS011;5966;52.402;5.322;2023-05-07T13:56:06;6.07;;;5.23;;
11817;SDS011;5966;52.402;5.322;2023-05-07T13:58:34;6.05;;;5.18;;
11817;SDS011;5966;52.402;5.322;2023-05-07T14:01:15;9.00;;;5.10;;
11817;SDS011;5966;52.402;5.322;2023-05-07T14:03:43;6.90;;;5.87;;
11817;SDS011;5966;52.402;5.322;2023-05-07T14:06:11;7.13;;;5.10;;
11817;SDS011;5966;52.402;5.322;2023-05-07T14:08:39;6.10;;;4.60;;
11817;SDS011;5966;52.402;5.322;2023-05-07T14:11:07;6.03;;;4.75;;
11817;SDS011;5966;52.402;5.322;2023-05-07T14:13:35;5.60;;;4.55;;
11817;SDS011;5966;52.402;5.322;2023-05-07T14:16:03;7.93;;;5.60;;
11817;SDS011;5966;52.402;5.322;2023-05-07T14:18:34;7.10;;;5.75;;
11817;SDS011;5966;52.402;5.322;2023-05-07T14:21:04;10.43;;;6.03;;
11817;SDS011;5966;52.402;5.322;2023-05-07T14:23:35;6.93;;;6.23;;
11817;SDS011;5966;52.402;5.322;2023-05-07T14:26:04;9.57;;;6.47;;
11817;SDS011;5966;52.402;5.322;2023-05-07T14:28:32;6.80;;;6.10;;
11817;SDS011;5966;52.402;5.322;2023-05-07T14:31:00;7.90;;;7.03;;
11817;SDS011;5966;52.402;5.322;2023-05-07T14:33:29;8.70;;;7.07;;
11817;SDS011;5966;52.402;5.322;2023-05-07T14:35:58;8.27;;;7.40;;
11817;SDS011;5966;52.402;5.322;2023-05-07T14:38:26;9.93;;;8.27;;
11817;SDS011;5966;52.402;5.322;2023-05-07T14:40:54;9.02;;;7.88;;
11817;SDS011;5966;52.402;5.322;2023-05-07T14:43:22;9.67;;;8.30;;
11817;SDS011;5966;52.402;5.322;2023-05-07T14:45:50;7.97;;;7.17;;
11817;SDS011;5966;52.402;5.322;2023-05-07T14:48:19;8.70;;;7.17;;
11817;SDS011;5966;52.402;5.322;2023-05-07T14:50:47;8.93;;;7.17;;
11817;SDS011;5966;52.402;5.322;2023-05-07T14:53:17;7.80;;;6.10;;
11817;SDS011;5966;52.402;5.322;2023-05-07T14:58:18;7.90;;;6.03;;
11817;SDS011;5966;52.402;5.322;2023-05-07T15:00:48;7.77;;;4.97;;
11817;SDS011;5966;52.402;5.322;2023-05-07T15:03:16;7.87;;;5.50;;
11817;SDS011;5966;52.402;5.322;2023-05-07T15:05:44;5.95;;;4.53;;
11817;SDS011;5966;52.402;5.322;2023-05-07T15:08:16;6.87;;;4.60;;
11817;SDS011;5966;52.402;5.322;2023-05-07T15:10:44;4.70;;;4.10;;